Time;durP1;ratioP1;P1;durP2;ratioP2;P2;SDS_P1;SDS_P2;PMS_P1;PMS_P2;Temp;Humidity;BMP_temperature;BMP_pressure;BME280_temperature;BME280_humidity;BME280_pressure;Samples;Min_cycle;Max_cycle;Signal;HPM_P1;HPM_P2
2021/04/25 00:02:04;;;;;;;11.95;4.38;;;;;;;;;;5056398;28;20044;-65
2021/04/25 00:04:30;;;;;;;12.23;4.55;;;;;;;;;;5056447;28;20072;-66
2021/04/25 00:06:55;;;;;;;14.05;5.78;;;;;;;;;;5056650;28;20033;-66
2021/04/25 00:09:21;;;;;;;17.27;5.22;;;;;;;;;;5056383;28;20024;-66
2021/04/25 00:11:47;;;;;;;13.55;5.30;;;;;;;;;;5056514;28;20377;-66
2021/04/25 00:14:12;;;;;;;19.80;5.88;;;;;;;;;;5054937;28;20037;-66
2021/04/25 00:16:37;;;;;;;9.45;4.18;;;;;;;;;;5056419;28;20040;-66
2021/04/25 00:19:04;;;;;;;15.75;5.40;;;;;;;;;;5056321;28;20075;-63
2021/04/25 00:21:29;;;;;;;15.20;4.93;;;;;;;;;;5056291;28;20040;-63
2021/04/25 00:23:55;;;;;;;14.02;4.97;;;;;;;;;;5056119;28;20021;-63
2021/04/25 00:26:21;;;;;;;14.50;5.68;;;;;;;;;;5056151;28;20390;-63
2021/04/25 00:28:46;;;;;;;23.38;6.38;;;;;;;;;;5054879;28;20078;-63
2021/04/25 00:31:11;;;;;;;8.23;4.60;;;;;;;;;;5055259;28;20369;-63
2021/04/25 00:33:37;;;;;;;14.60;5.65;;;;;;;;;;5055968;28;20029;-63
2021/04/25 00:36:02;;;;;;;12.90;4.63;;;;;;;;;;5052213;28;20505;-65
2021/04/25 00:38:28;;;;;;;17.85;4.88;;;;;;;;;;5054526;28;20021;-65
2021/04/25 00:40:53;;;;;;;16.67;4.70;;;;;;;;;;5055387;28;20048;-65
2021/04/25 00:43:19;;;;;;;15.13;5.38;;;;;;;;;;5055598;28;20033;-65
2021/04/25 00:45:44;;;;;;;14.60;4.90;;;;;;;;;;5055918;28;20013;-65
2021/04/25 00:48:09;;;;;;;21.02;6.13;;;;;;;;;;5055643;28;20044;-65
2021/04/25 00:50:35;;;;;;;15.77;5.57;;;;;;;;;;5055774;28;20036;-65
2021/04/25 00:53:00;;;;;;;18.73;5.53;;;;;;;;;;5055386;28;20376;-65
2021/04/25 00:55:29;;;;;;;16.52;5.47;;;;;;;;;;5052796;28;20048;-65
2021/04/25 00:57:55;;;;;;;15.43;5.45;;;;;;;;;;5054271;28;20031;-65
2021/04/25 01:00:21;;;;;;;11.48;5.38;;;;;;;;;;5055519;28;20424;-65
2021/04/25 01:02:46;;;;;;;9.98;5.15;;;;;;;;;;5055246;28;20078;-65
2021/04/25 01:05:12;;;;;;;11.23;5.40;;;;;;;;;;5055468;28;20029;-65
2021/04/25 01:07:38;;;;;;;20.88;5.78;;;;;;;;;;5055163;28;20381;-65
2021/04/25 01:10:04;;;;;;;17.02;5.28;;;;;;;;;;5055273;28;20040;-65
2021/04/25 01:12:30;;;;;;;19.13;6.22;;;;;;;;;;5055321;28;20041;-65
2021/04/25 01:14:55;;;;;;;17.33;6.63;;;;;;;;;;5054758;28;20040;-63
2021/04/25 01:17:20;;;;;;;11.60;5.60;;;;;;;;;;5055209;28;20033;-65
2021/04/25 01:19:46;;;;;;;14.93;6.05;;;;;;;;;;5055240;28;20029;-65
2021/04/25 01:22:11;;;;;;;15.45;6.22;;;;;;;;;;5054852;28;20043;-65
2021/04/25 01:24:36;;;;;;;13.90;6.53;;;;;;;;;;5054995;28;20074;-65
2021/04/25 01:27:02;;;;;;;15.52;5.65;;;;;;;;;;5055067;28;20029;-65
2021/04/25 01:29:27;;;;;;;16.48;6.63;;;;;;;;;;5054953;28;20437;-65
2021/04/25 01:31:52;;;;;;;18.67;6.75;;;;;;;;;;5055028;28;20032;-65
2021/04/25 01:34:17;;;;;;;13.07;6.03;;;;;;;;;;5054816;28;20373;-65
2021/04/25 01:36:43;;;;;;;16.92;6.65;;;;;;;;;;5055217;28;20365;-64
2021/04/25 01:39:08;;;;;;;13.50;6.03;;;;;;;;;;5054510;28;20470;-65
2021/04/25 01:41:33;;;;;;;14.13;5.72;;;;;;;;;;5054389;28;20071;-65
2021/04/25 01:44:00;;;;;;;15.18;5.15;;;;;;;;;;5054728;28;20020;-65
2021/04/25 01:46:25;;;;;;;21.00;6.13;;;;;;;;;;5054740;28;20059;-65
2021/04/25 01:48:50;;;;;;;19.75;6.75;;;;;;;;;;5054600;28;20041;-65
2021/04/25 01:51:16;;;;;;;19.73;6.40;;;;;;;;;;5054629;28;20017;-65
2021/04/25 01:53:41;;;;;;;12.40;5.90;;;;;;;;;;5054382;28;20826;-63
2021/04/25 01:56:06;;;;;;;16.08;6.28;;;;;;;;;;5054509;28;20033;-63
2021/04/25 01:58:32;;;;;;;19.13;6.75;;;;;;;;;;5054138;28;20017;-65
2021/04/25 02:00:57;;;;;;;18.27;7.15;;;;;;;;;;5054135;28;20373;-65
2021/04/25 02:03:24;;;;;;;20.50;6.47;;;;;;;;;;5054149;28;20061;-63
2021/04/25 02:05:49;;;;;;;22.25;7.75;;;;;;;;;;5053749;28;20021;-63
2021/04/25 02:08:15;;;;;;;14.98;6.05;;;;;;;;;;5053840;28;20444;-63
2021/04/25 02:10:41;;;;;;;23.25;7.85;;;;;;;;;;5054378;28;20031;-62
2021/04/25 02:13:07;;;;;;;19.10;8.02;;;;;;;;;;5054045;28;20099;-63
2021/04/25 02:15:33;;;;;;;19.75;7.80;;;;;;;;;;5054087;28;20063;-63
2021/04/25 02:17:58;;;;;;;14.68;6.82;;;;;;;;;;5054023;28;20379;-65
2021/04/25 02:20:24;;;;;;;18.48;7.60;;;;;;;;;;5054059;28;20017;-65
2021/04/25 02:22:50;;;;;;;22.15;7.85;;;;;;;;;;5054044;28;20416;-65
2021/04/25 02:25:16;;;;;;;19.00;7.13;;;;;;;;;;5053940;28;20033;-64
2021/04/25 02:27:41;;;;;;;20.30;7.53;;;;;;;;;;5053955;28;20021;-64
2021/04/25 02:30:08;;;;;;;20.85;7.78;;;;;;;;;;5053771;28;20150;-65
2021/04/25 02:32:34;;;;;;;22.95;8.25;;;;;;;;;;5053549;28;20507;-63
2021/04/25 02:34:59;;;;;;;20.48;8.43;;;;;;;;;;5053621;28;20111;-63
2021/04/25 02:37:24;;;;;;;21.35;8.18;;;;;;;;;;5053473;28;20035;-63
2021/04/25 02:39:49;;;;;;;21.58;7.63;;;;;;;;;;5053331;28;20057;-62
2021/04/25 02:42:15;;;;;;;17.48;7.20;;;;;;;;;;5053615;28;20706;-63
2021/04/25 02:44:40;;;;;;;22.40;8.07;;;;;;;;;;5053866;28;20065;-65
2021/04/25 02:47:05;;;;;;;20.40;8.55;;;;;;;;;;5053640;28;20381;-64
2021/04/25 02:49:31;;;;;;;24.33;8.48;;;;;;;;;;5053098;28;20469;-64
2021/04/25 02:51:56;;;;;;;17.15;7.13;;;;;;;;;;5053545;28;20036;-65
2021/04/25 02:54:21;;;;;;;24.73;9.98;;;;;;;;;;5053382;28;20557;-65
2021/04/25 02:56:47;;;;;;;27.55;8.48;;;;;;;;;;5053190;28;20013;-65
2021/04/25 02:59:12;;;;;;;20.75;8.07;;;;;;;;;;5053282;28;20534;-65
2021/04/25 03:01:37;;;;;;;25.58;8.73;;;;;;;;;;5053616;28;20116;-65
2021/04/25 03:04:03;;;;;;;28.70;10.48;;;;;;;;;;5053230;28;20019;-65
2021/04/25 03:06:28;;;;;;;19.75;8.35;;;;;;;;;;5053218;28;20070;-65
2021/04/25 03:08:53;;;;;;;27.65;8.82;;;;;;;;;;5053236;28;20060;-65
2021/04/25 03:11:18;;;;;;;30.30;8.93;;;;;;;;;;5053126;28;20012;-65
2021/04/25 03:13:44;;;;;;;25.17;8.70;;;;;;;;;;5053008;28;20025;-65
2021/04/25 03:16:09;;;;;;;26.65;9.48;;;;;;;;;;5053159;28;20045;-65
2021/04/25 03:18:34;;;;;;;31.75;8.70;;;;;;;;;;5052743;28;20103;-63
2021/04/25 03:20:59;;;;;;;26.52;9.60;;;;;;;;;;5053167;28;20029;-62
2021/04/25 03:23:25;;;;;;;21.38;9.00;;;;;;;;;;5052679;28;20040;-64
2021/04/25 03:25:50;;;;;;;31.67;9.60;;;;;;;;;;5051737;28;20151;-65
2021/04/25 03:28:15;;;;;;;26.38;9.32;;;;;;;;;;5053236;28;20025;-65
2021/04/25 03:30:41;;;;;;;26.13;9.15;;;;;;;;;;5052938;28;20063;-65
2021/04/25 03:33:06;;;;;;;26.42;9.75;;;;;;;;;;5052841;28;20373;-65
2021/04/25 03:35:32;;;;;;;27.63;9.73;;;;;;;;;;5052910;28;20072;-64
2021/04/25 03:37:57;;;;;;;24.90;10.80;;;;;;;;;;5052947;28;20060;-65
2021/04/25 03:40:22;;;;;;;26.70;9.80;;;;;;;;;;5052894;28;20102;-65
2021/04/25 03:42:48;;;;;;;27.73;9.45;;;;;;;;;;5052873;28;20033;-64
2021/04/25 03:45:14;;;;;;;36.25;9.02;;;;;;;;;;5053092;28;20036;-64
2021/04/25 03:47:46;;;;;;;28.40;9.20;;;;;;;;;;5052878;28;20135;-65
2021/04/25 03:50:13;;;;;;;28.02;9.25;;;;;;;;;;5052754;28;20029;-65
2021/04/25 03:52:38;;;;;;;36.72;10.38;;;;;;;;;;5052502;28;20397;-65
2021/04/25 03:55:04;;;;;;;30.70;10.25;;;;;;;;;;5052583;28;20025;-65
2021/04/25 03:57:29;;;;;;;30.67;10.07;;;;;;;;;;5052766;28;20083;-64
2021/04/25 03:59:55;;;;;;;32.20;9.88;;;;;;;;;;5052709;28;20087;-64
2021/04/25 04:02:20;;;;;;;25.02;8.75;;;;;;;;;;5052670;28;20025;-65
2021/04/25 04:04:45;;;;;;;30.20;10.35;;;;;;;;;;5052382;28;20083;-65
2021/04/25 04:07:10;;;;;;;28.63;10.60;;;;;;;;;;5052651;28;20033;-65
2021/04/25 04:09:36;;;;;;;32.95;10.15;;;;;;;;;;5052534;28;20572;-65
2021/04/25 04:12:01;;;;;;;29.15;10.07;;;;;;;;;;5052694;28;20063;-65
2021/04/25 04:14:26;;;;;;;33.65;11.05;;;;;;;;;;5052385;28;20473;-65
2021/04/25 04:16:52;;;;;;;30.42;9.77;;;;;;;;;;5052671;28;20021;-64
2021/04/25 04:19:17;;;;;;;32.95;9.45;;;;;;;;;;5052050;28;20477;-64
2021/04/25 04:21:42;;;;;;;29.20;10.68;;;;;;;;;;5051919;28;20041;-64
2021/04/25 04:24:07;;;;;;;37.78;9.93;;;;;;;;;;5052124;28;20021;-65
2021/04/25 04:26:33;;;;;;;37.90;9.98;;;;;;;;;;5052424;28;20108;-64
2021/04/25 04:28:58;;;;;;;35.95;10.27;;;;;;;;;;5054924;28;20044;-65
2021/04/25 04:31:23;;;;;;;40.53;10.48;;;;;;;;;;5055826;28;20013;-64
2021/04/25 04:33:48;;;;;;;41.47;11.48;;;;;;;;;;5055893;28;20033;-65
2021/04/25 04:36:14;;;;;;;35.50;10.48;;;;;;;;;;5055828;28;20043;-65
2021/04/25 04:38:39;;;;;;;37.70;11.82;;;;;;;;;;5055826;28;20055;-65
2021/04/25 04:41:04;;;;;;;37.05;10.55;;;;;;;;;;5056033;28;20041;-65
2021/04/25 04:43:30;;;;;;;35.78;9.48;;;;;;;;;;5055826;28;20041;-65
2021/04/25 04:45:56;;;;;;;34.80;10.20;;;;;;;;;;5055820;28;20123;-64
2021/04/25 04:48:21;;;;;;;44.42;12.02;;;;;;;;;;5054404;28;20388;-65
2021/04/25 04:50:46;;;;;;;45.35;10.57;;;;;;;;;;5055804;28;20127;-64
2021/04/25 04:53:12;;;;;;;44.88;10.35;;;;;;;;;;5055782;28;20025;-64
2021/04/25 04:55:37;;;;;;;42.78;11.02;;;;;;;;;;5055736;28;20090;-65
2021/04/25 04:58:02;;;;;;;37.58;11.35;;;;;;;;;;5055697;28;20424;-65
2021/04/25 05:00:28;;;;;;;47.47;11.50;;;;;;;;;;5055495;28;20024;-64
2021/04/25 05:02:53;;;;;;;46.70;13.32;;;;;;;;;;5055606;28;20464;-65
2021/04/25 05:05:18;;;;;;;54.15;11.70;;;;;;;;;;5055559;28;20037;-65
2021/04/25 05:07:44;;;;;;;42.22;11.27;;;;;;;;;;5055526;28;20017;-65
2021/04/25 05:10:10;;;;;;;48.85;12.38;;;;;;;;;;5055301;28;20112;-65
2021/04/25 05:12:35;;;;;;;55.60;13.55;;;;;;;;;;5054096;28;20037;-65
2021/04/25 05:15:00;;;;;;;32.55;10.45;;;;;;;;;;5054873;28;20029;-65
2021/04/25 05:17:26;;;;;;;46.00;11.40;;;;;;;;;;5055234;28;20123;-64
2021/04/25 05:19:51;;;;;;;56.95;12.63;;;;;;;;;;5055199;28;20037;-64
2021/04/25 05:22:16;;;;;;;46.88;12.43;;;;;;;;;;5055200;28;20108;-65
2021/04/25 05:24:42;;;;;;;40.78;11.40;;;;;;;;;;5055384;28;20476;-65
2021/04/25 05:27:07;;;;;;;45.10;11.82;;;;;;;;;;5055059;28;20086;-65
2021/04/25 05:29:32;;;;;;;38.50;10.57;;;;;;;;;;5055005;28;20366;-64
2021/04/25 05:31:59;;;;;;;45.17;11.73;;;;;;;;;;5055103;28;20036;-64
2021/04/25 05:34:24;;;;;;;42.88;10.20;;;;;;;;;;5055051;28;20037;-64
2021/04/25 05:36:50;;;;;;;34.58;10.45;;;;;;;;;;5054706;28;20103;-65
2021/04/25 05:39:15;;;;;;;24.35;9.40;;;;;;;;;;5053578;28;20052;-65
2021/04/25 05:41:40;;;;;;;24.55;9.73;;;;;;;;;;5055029;28;20068;-65
2021/04/25 05:44:05;;;;;;;26.25;8.55;;;;;;;;;;5054733;28;20056;-65
2021/04/25 05:46:33;;;;;;;23.35;8.35;;;;;;;;;;5054442;28;20380;-65
2021/04/25 05:48:58;;;;;;;16.35;7.75;;;;;;;;;;5054647;28;20044;-65
2021/04/25 05:51:23;;;;;;;19.13;7.55;;;;;;;;;;5054599;28;20013;-65
2021/04/25 05:53:49;;;;;;;13.90;6.55;;;;;;;;;;5054418;28;20458;-63
2021/04/25 05:56:14;;;;;;;17.05;7.57;;;;;;;;;;5054608;28;20044;-63
2021/04/25 05:58:39;;;;;;;15.07;6.93;;;;;;;;;;5054359;28;20487;-63
2021/04/25 06:01:04;;;;;;;14.15;5.97;;;;;;;;;;5054443;28;20123;-64
2021/04/25 06:03:30;;;;;;;16.80;6.85;;;;;;;;;;5054201;28;20048;-64
2021/04/25 06:05:56;;;;;;;14.48;7.35;;;;;;;;;;5054442;28;20420;-64
2021/04/25 06:08:21;;;;;;;15.90;6.18;;;;;;;;;;5053908;28;20036;-64
2021/04/25 06:10:46;;;;;;;15.60;6.95;;;;;;;;;;5054043;28;20378;-65
2021/04/25 06:13:12;;;;;;;15.68;7.05;;;;;;;;;;5054439;28;20039;-64
2021/04/25 06:15:37;;;;;;;17.20;7.97;;;;;;;;;;5053978;28;20041;-64
2021/04/25 06:18:03;;;;;;;16.80;6.47;;;;;;;;;;5054142;28;20536;-64
2021/04/25 06:20:29;;;;;;;13.18;6.80;;;;;;;;;;5054034;28;20044;-64
2021/04/25 06:22:54;;;;;;;16.80;7.20;;;;;;;;;;5054106;28;20036;-64
2021/04/25 06:25:20;;;;;;;14.52;6.15;;;;;;;;;;5053863;28;20040;-64
2021/04/25 06:27:45;;;;;;;11.93;6.22;;;;;;;;;;5053984;28;20028;-65
2021/04/25 06:30:12;;;;;;;12.45;6.38;;;;;;;;;;5053842;28;20021;-65
2021/04/25 06:32:37;;;;;;;15.45;6.47;;;;;;;;;;5053909;28;20033;-65
2021/04/25 06:35:03;;;;;;;11.63;6.43;;;;;;;;;;5053676;28;20358;-65
2021/04/25 06:37:29;;;;;;;12.25;6.57;;;;;;;;;;5053869;28;20030;-65
2021/04/25 06:39:54;;;;;;;14.77;6.55;;;;;;;;;;5053458;28;20060;-65
2021/04/25 06:42:19;;;;;;;16.75;7.55;;;;;;;;;;5053670;28;20025;-65
2021/04/25 06:44:45;;;;;;;15.73;6.60;;;;;;;;;;5053209;28;20033;-65
2021/04/25 06:47:10;;;;;;;15.80;6.47;;;;;;;;;;5053673;28;20040;-65
2021/04/25 06:49:35;;;;;;;15.38;6.32;;;;;;;;;;5053066;28;20027;-64
2021/04/25 06:52:01;;;;;;;10.30;5.63;;;;;;;;;;5053315;28;20029;-65
2021/04/25 06:54:26;;;;;;;14.82;6.20;;;;;;;;;;5052980;28;20041;-65
2021/04/25 06:56:52;;;;;;;15.88;5.60;;;;;;;;;;5053548;28;20029;-65
2021/04/25 06:59:17;;;;;;;11.48;5.30;;;;;;;;;;5053289;28;20082;-65
2021/04/25 07:01:42;;;;;;;11.07;5.60;;;;;;;;;;5053351;28;20029;-65
2021/04/25 07:04:08;;;;;;;13.20;5.53;;;;;;;;;;5052827;28;20454;-65
2021/04/25 07:06:33;;;;;;;8.93;5.20;;;;;;;;;;5052881;28;20039;-65
2021/04/25 07:08:58;;;;;;;14.35;6.05;;;;;;;;;;5052928;28;20094;-65
2021/04/25 07:11:24;;;;;;;15.27;6.43;;;;;;;;;;5053173;28;20029;-65
2021/04/25 07:13:49;;;;;;;13.25;6.03;;;;;;;;;;5053076;28;20448;-65
2021/04/25 07:16:14;;;;;;;10.18;5.43;;;;;;;;;;5053072;28;20065;-65
2021/04/25 07:18:40;;;;;;;12.35;5.57;;;;;;;;;;5053108;28;20028;-65
2021/04/25 07:21:05;;;;;;;14.57;5.95;;;;;;;;;;5052794;28;20025;-65
2021/04/25 07:23:30;;;;;;;15.13;5.55;;;;;;;;;;5053119;28;20454;-65
2021/04/25 07:25:56;;;;;;;14.23;5.70;;;;;;;;;;5052722;28;20025;-65
2021/04/25 07:28:22;;;;;;;12.73;5.95;;;;;;;;;;5053057;28;20055;-65
2021/04/25 07:30:48;;;;;;;14.65;6.60;;;;;;;;;;5052850;28;20064;-65
2021/04/25 07:33:14;;;;;;;11.23;5.88;;;;;;;;;;5053089;28;20057;-65
2021/04/25 07:35:40;;;;;;;14.88;6.80;;;;;;;;;;5052829;28;20046;-65
2021/04/25 07:38:05;;;;;;;12.30;6.43;;;;;;;;;;5053043;28;20098;-66
2021/04/25 07:40:30;;;;;;;17.75;6.18;;;;;;;;;;5050985;28;20444;-66
2021/04/25 07:42:56;;;;;;;14.50;5.82;;;;;;;;;;5052939;28;20029;-65
2021/04/25 07:45:21;;;;;;;15.55;6.65;;;;;;;;;;5052440;28;20408;-65
2021/04/25 07:47:46;;;;;;;11.88;6.07;;;;;;;;;;5053211;28;20343;-65
2021/04/25 07:50:14;;;;;;;10.98;5.85;;;;;;;;;;5052659;28;20064;-65
2021/04/25 07:52:39;;;;;;;11.55;5.90;;;;;;;;;;5052747;28;20036;-66
2021/04/25 07:55:05;;;;;;;12.85;5.47;;;;;;;;;;5052537;28;20048;-65
2021/04/25 07:57:31;;;;;;;11.68;6.10;;;;;;;;;;5046212;28;20473;-65
2021/04/25 07:59:56;;;;;;;12.68;6.28;;;;;;;;;;5047204;28;20047;-64
2021/04/25 08:02:22;;;;;;;14.55;6.40;;;;;;;;;;5037134;28;20043;-65
2021/04/25 08:04:48;;;;;;;13.68;6.13;;;;;;;;;;5049570;28;20035;-65
2021/04/25 08:07:14;;;;;;;14.80;6.25;;;;;;;;;;5049163;28;20452;-65
2021/04/25 08:09:39;;;;;;;10.35;5.68;;;;;;;;;;5050712;28;20026;-65
2021/04/25 08:12:06;;;;;;;9.60;5.30;;;;;;;;;;5050153;28;20039;-65
2021/04/25 08:14:31;;;;;;;11.38;6.22;;;;;;;;;;5050776;28;20048;-65
2021/04/25 08:16:57;;;;;;;10.45;6.13;;;;;;;;;;5050474;28;20025;-65
2021/04/25 08:19:22;;;;;;;11.38;5.47;;;;;;;;;;5050936;28;20033;-65
2021/04/25 08:21:47;;;;;;;10.48;5.45;;;;;;;;;;5050311;28;20124;-65
2021/04/25 08:24:12;;;;;;;10.23;5.13;;;;;;;;;;5050310;28;20684;-66
2021/04/25 08:26:38;;;;;;;12.23;5.15;;;;;;;;;;5050727;28;20110;-66
2021/04/25 08:29:03;;;;;;;9.20;5.50;;;;;;;;;;5050672;28;20465;-66
2021/04/25 08:31:29;;;;;;;9.65;4.90;;;;;;;;;;5041523;28;20021;-65
2021/04/25 08:33:54;;;;;;;12.63;5.82;;;;;;;;;;5047810;28;20044;-65
2021/04/25 08:36:19;;;;;;;9.80;5.40;;;;;;;;;;5049256;28;20060;-66
2021/04/25 08:38:47;;;;;;;8.02;5.13;;;;;;;;;;5047106;28;20060;-65
2021/04/25 08:41:14;;;;;;;8.63;5.05;;;;;;;;;;5048880;28;20558;-65
2021/04/25 08:43:40;;;;;;;13.48;5.50;;;;;;;;;;5048717;28;20125;-65
2021/04/25 08:46:07;;;;;;;10.95;5.00;;;;;;;;;;5050014;28;20060;-66
2021/04/25 08:48:32;;;;;;;9.80;5.20;;;;;;;;;;5048254;28;20151;-66
2021/04/25 08:50:58;;;;;;;10.27;4.97;;;;;;;;;;5048569;28;20108;-66
2021/04/25 08:53:23;;;;;;;8.48;4.75;;;;;;;;;;5047522;28;20025;-66
2021/04/25 08:55:48;;;;;;;11.30;5.07;;;;;;;;;;5047312;28;20041;-66
2021/04/25 08:58:14;;;;;;;10.75;4.57;;;;;;;;;;5049986;28;20032;-66
2021/04/25 09:00:40;;;;;;;9.05;4.85;;;;;;;;;;5049690;28;20021;-66
2021/04/25 09:03:05;;;;;;;11.10;4.78;;;;;;;;;;5047577;28;20033;-66
2021/04/25 09:05:30;;;;;;;8.80;4.85;;;;;;;;;;5047968;28;20033;-66
2021/04/25 09:07:57;;;;;;;10.27;4.70;;;;;;;;;;5048349;28;20029;-66
2021/04/25 09:10:30;;;;;;;9.27;4.43;;;;;;;;;;5048372;28;20083;-65
2021/04/25 09:12:55;;;;;;;8.48;4.40;;;;;;;;;;5048524;28;20063;-65
2021/04/25 09:15:20;;;;;;;8.27;3.97;;;;;;;;;;5048891;28;20029;-65
2021/04/25 09:17:51;;;;;;;8.38;4.43;;;;;;;;;;5047935;28;20140;-65
2021/04/25 09:20:18;;;;;;;7.45;4.55;;;;;;;;;;5046091;28;20036;-66
2021/04/25 09:22:47;;;;;;;10.10;4.72;;;;;;;;;;5048025;28;20423;-65
2021/04/25 09:25:18;;;;;;;8.70;4.40;;;;;;;;;;5047085;28;20531;-66
2021/04/25 09:27:44;;;;;;;8.50;4.20;;;;;;;;;;5047676;28;20036;-66
2021/04/25 09:30:10;;;;;;;8.85;4.70;;;;;;;;;;5047858;28;20406;-66
2021/04/25 09:32:36;;;;;;;6.55;3.47;;;;;;;;;;5047244;28;20036;-66
2021/04/25 09:35:16;;;;;;;6.75;4.13;;;;;;;;;;5047296;28;20102;-66
2021/04/25 09:37:43;;;;;;;7.03;3.92;;;;;;;;;;5049040;28;20040;-65
2021/04/25 09:40:10;;;;;;;7.95;3.85;;;;;;;;;;5049216;28;20053;-65
2021/04/25 09:42:54;;;;;;;7.60;4.20;;;;;;;;;;5049216;28;20025;-65
2021/04/25 09:45:23;;;;;;;11.32;4.43;;;;;;;;;;5048805;28;20033;-65
2021/04/25 09:47:48;;;;;;;7.90;3.75;;;;;;;;;;5047813;28;20032;-65
2021/04/25 09:50:17;;;;;;;7.18;3.92;;;;;;;;;;5047956;28;20137;-66
2021/04/25 09:52:43;;;;;;;7.10;4.38;;;;;;;;;;5047655;28;20063;-66
2021/04/25 09:55:12;;;;;;;8.57;3.83;;;;;;;;;;5046959;28;20036;-66
2021/04/25 09:57:38;;;;;;;8.68;4.13;;;;;;;;;;5048090;28;20461;-66
2021/04/25 10:00:04;;;;;;;6.38;3.50;;;;;;;;;;5048900;28;20111;-65
2021/04/25 10:02:30;;;;;;;8.88;3.80;;;;;;;;;;5047559;28;20083;-65
2021/04/25 10:05:05;;;;;;;7.85;4.20;;;;;;;;;;5047724;28;20025;-65
2021/04/25 10:07:34;;;;;;;8.55;3.85;;;;;;;;;;5046861;28;20036;-65
2021/04/25 10:10:13;;;;;;;5.55;3.63;;;;;;;;;;5046985;28;20037;-65
2021/04/25 10:12:38;;;;;;;6.60;3.80;;;;;;;;;;5047318;28;20120;-65
2021/04/25 10:15:04;;;;;;;9.10;3.92;;;;;;;;;;5047280;28;20452;-65
2021/04/25 10:17:29;;;;;;;8.20;4.07;;;;;;;;;;5047257;28;20033;-66
2021/04/25 10:19:55;;;;;;;8.40;3.85;;;;;;;;;;5046737;28;20029;-65
2021/04/25 10:22:21;;;;;;;9.88;3.60;;;;;;;;;;5046849;28;20048;-65
2021/04/25 10:24:46;;;;;;;8.23;3.75;;;;;;;;;;5047154;28;20369;-65
2021/04/25 10:27:13;;;;;;;7.15;3.60;;;;;;;;;;5046131;28;20110;-66
2021/04/25 10:29:44;;;;;;;7.68;3.88;;;;;;;;;;5047132;28;20336;-65
2021/04/25 10:32:09;;;;;;;5.35;2.85;;;;;;;;;;5046808;28;20025;-65
2021/04/25 10:34:35;;;;;;;5.95;3.40;;;;;;;;;;5046883;28;20048;-65
2021/04/25 10:37:02;;;;;;;8.73;3.65;;;;;;;;;;5046783;28;20529;-65
2021/04/25 10:39:36;;;;;;;8.43;3.60;;;;;;;;;;5047943;28;20529;-66
2021/04/25 10:42:25;;;;;;;6.88;3.22;;;;;;;;;;5047504;28;20500;-67
2021/04/25 10:44:59;;;;;;;10.07;4.05;;;;;;;;;;5048088;28;20098;-66
2021/04/25 10:47:24;;;;;;;6.32;2.47;;;;;;;;;;5046774;28;20037;-66
2021/04/25 10:49:49;;;;;;;5.78;3.50;;;;;;;;;;5046815;28;20044;-66
2021/04/25 10:52:31;;;;;;;9.18;3.30;;;;;;;;;;5045838;28;20381;-67
2021/04/25 10:55:17;;;;;;;12.63;3.70;;;;;;;;;;5046841;28;20051;-66
2021/04/25 10:57:55;;;;;;;4.80;2.65;;;;;;;;;;5047245;28;20036;-66
2021/04/25 11:00:29;;;;;;;7.45;3.70;;;;;;;;;;5047630;28;20805;-66
2021/04/25 11:02:55;;;;;;;7.90;3.40;;;;;;;;;;5046379;28;20032;-67
2021/04/25 11:05:40;;;;;;;7.28;4.03;;;;;;;;;;5046039;28;20537;-66
2021/04/25 11:08:12;;;;;;;6.05;3.38;;;;;;;;;;5046106;28;20125;-66
2021/04/25 11:10:51;;;;;;;6.05;3.33;;;;;;;;;;5045720;28;20037;-66
2021/04/25 11:13:35;;;;;;;11.63;4.07;;;;;;;;;;5045235;28;20028;-66
2021/04/25 11:16:02;;;;;;;7.55;3.75;;;;;;;;;;5045977;28;20049;-66
2021/04/25 11:18:43;;;;;;;5.22;2.72;;;;;;;;;;5046236;28;20737;-66
2021/04/25 11:23:56;;;;;;;5.57;3.42;;;;;;;;;;5045677;28;20041;-66
2021/04/25 11:26:34;;;;;;;7.95;3.58;;;;;;;;;;5046182;28;20037;-65
2021/04/25 11:29:01;;;;;;;6.55;3.17;;;;;;;;;;5044485;28;20040;-67
2021/04/25 11:34:25;;;;;;;8.30;3.20;;;;;;;;;;5041017;28;20045;-66
2021/04/25 11:36:57;;;;;;;7.22;3.50;;;;;;;;;;5044297;28;20131;-66
2021/04/25 11:39:34;;;;;;;8.45;3.53;;;;;;;;;;5047376;28;20084;-66
2021/04/25 11:42:00;;;;;;;7.75;3.53;;;;;;;;;;5047629;28;20429;-66
2021/04/25 11:44:27;;;;;;;5.72;3.10;;;;;;;;;;5047426;28;20025;-66
2021/04/25 11:46:53;;;;;;;3.85;2.28;;;;;;;;;;5045917;28;20142;-66
2021/04/25 11:49:27;;;;;;;7.35;3.60;;;;;;;;;;5046582;28;20458;-66
2021/04/25 11:52:05;;;;;;;6.72;2.50;;;;;;;;;;5046922;28;20104;-66
2021/04/25 11:54:30;;;;;;;9.73;3.55;;;;;;;;;;5045339;28;20045;-66
2021/04/25 11:57:06;;;;;;;9.48;3.58;;;;;;;;;;5049808;28;20063;-66
2021/04/25 11:59:31;;;;;;;5.57;3.00;;;;;;;;;;5051020;28;20508;-66
2021/04/25 12:02:06;;;;;;;6.18;3.00;;;;;;;;;;5050767;28;20045;-66
2021/04/25 12:04:48;;;;;;;9.25;3.33;;;;;;;;;;5049920;28;20037;-66
2021/04/25 12:07:29;;;;;;;5.75;2.97;;;;;;;;;;5049414;28;20106;-66
2021/04/25 12:09:54;;;;;;;6.60;3.00;;;;;;;;;;5050084;28;20041;-66
2021/04/25 12:12:19;;;;;;;11.02;3.33;;;;;;;;;;5049041;28;20040;-66
2021/04/25 12:14:46;;;;;;;10.27;4.00;;;;;;;;;;5050712;28;20067;-66
2021/04/25 12:17:14;;;;;;;5.57;2.42;;;;;;;;;;5049782;28;20072;-66
2021/04/25 12:19:40;;;;;;;8.50;3.40;;;;;;;;;;5049032;28;20033;-66
2021/04/25 12:22:06;;;;;;;5.75;3.63;;;;;;;;;;5048358;28;20037;-66
2021/04/25 12:24:31;;;;;;;5.63;3.08;;;;;;;;;;5047905;28;20068;-66
2021/04/25 12:26:57;;;;;;;5.15;2.83;;;;;;;;;;5048985;28;20072;-66
2021/04/25 12:29:32;;;;;;;7.88;3.30;;;;;;;;;;5049742;28;20029;-66
2021/04/25 12:31:57;;;;;;;6.22;2.70;;;;;;;;;;5050339;28;20037;-66
2021/04/25 12:34:22;;;;;;;9.43;3.03;;;;;;;;;;5048001;28;20488;-66
2021/04/25 12:36:51;;;;;;;5.03;2.70;;;;;;;;;;5049126;28;20024;-65
2021/04/25 12:39:17;;;;;;;7.53;3.22;;;;;;;;;;5032871;28;20045;-66
2021/04/25 12:41:42;;;;;;;9.25;2.70;;;;;;;;;;5045801;28;20051;-65
2021/04/25 12:44:08;;;;;;;7.35;2.88;;;;;;;;;;5046908;28;20048;-66
2021/04/25 12:46:33;;;;;;;5.45;2.85;;;;;;;;;;5047262;28;20036;-66
2021/04/25 12:48:59;;;;;;;7.70;3.28;;;;;;;;;;5045542;28;20033;-66
2021/04/25 12:51:26;;;;;;;8.23;2.35;;;;;;;;;;5045265;28;20507;-66
2021/04/25 12:53:51;;;;;;;8.57;3.30;;;;;;;;;;5045363;28;20045;-66
2021/04/25 12:56:25;;;;;;;9.98;2.70;;;;;;;;;;5045919;28;20378;-66
2021/04/25 12:58:57;;;;;;;7.32;3.08;;;;;;;;;;5047030;28;20127;-66
2021/04/25 13:01:22;;;;;;;8.95;3.00;;;;;;;;;;5046492;28;20029;-66
2021/04/25 13:03:47;;;;;;;5.57;2.60;;;;;;;;;;5044621;28;20021;-66
2021/04/25 13:06:22;;;;;;;5.85;3.17;;;;;;;;;;5045094;28;20047;-66
2021/04/25 13:08:47;;;;;;;5.90;2.92;;;;;;;;;;5045618;28;20033;-66
2021/04/25 13:11:13;;;;;;;10.70;3.50;;;;;;;;;;5045190;28;20397;-66
2021/04/25 13:13:38;;;;;;;6.63;2.67;;;;;;;;;;5046643;28;20082;-66
2021/04/25 13:16:13;;;;;;;5.88;2.30;;;;;;;;;;5046005;28;20721;-66
2021/04/25 13:18:38;;;;;;;6.63;2.20;;;;;;;;;;5045599;28;20462;-66
2021/04/25 13:21:05;;;;;;;7.03;2.60;;;;;;;;;;5045238;28;20055;-66
2021/04/25 13:23:31;;;;;;;4.63;2.30;;;;;;;;;;5045272;28;20055;-66
2021/04/25 13:25:57;;;;;;;7.15;3.00;;;;;;;;;;5045453;28;20024;-66
2021/04/25 13:28:24;;;;;;;6.28;3.33;;;;;;;;;;5046062;28;20044;-66
2021/04/25 13:30:51;;;;;;;5.88;2.60;;;;;;;;;;5046023;28;20029;-66
2021/04/25 13:33:18;;;;;;;5.22;1.98;;;;;;;;;;5045350;28;20071;-66
2021/04/25 13:35:44;;;;;;;7.00;2.08;;;;;;;;;;5044664;28;20051;-66
2021/04/25 13:38:11;;;;;;;8.35;2.67;;;;;;;;;;5043244;28;20029;-66
2021/04/25 13:40:36;;;;;;;5.07;2.58;;;;;;;;;;5043472;28;20063;-66
2021/04/25 13:43:02;;;;;;;4.78;2.28;;;;;;;;;;5045322;28;20033;-66
2021/04/25 13:45:28;;;;;;;5.45;2.13;;;;;;;;;;5044304;28;20029;-66
2021/04/25 13:47:54;;;;;;;4.72;2.20;;;;;;;;;;5044771;28;20027;-66
2021/04/25 13:50:19;;;;;;;6.82;2.60;;;;;;;;;;5044877;28;20408;-66
2021/04/25 13:52:44;;;;;;;10.18;2.17;;;;;;;;;;5044442;28;20029;-66
2021/04/25 13:55:10;;;;;;;4.68;2.47;;;;;;;;;;5047176;28;20044;-66
2021/04/25 13:57:36;;;;;;;6.75;2.45;;;;;;;;;;5032477;28;20137;-66
2021/04/25 14:00:02;;;;;;;5.40;2.50;;;;;;;;;;5044458;28;20471;-64
2021/04/25 14:02:28;;;;;;;7.40;2.53;;;;;;;;;;5045617;28;20021;-66
2021/04/25 14:04:53;;;;;;;7.88;2.25;;;;;;;;;;5045816;28;20147;-66
2021/04/25 14:07:18;;;;;;;3.70;1.83;;;;;;;;;;5046159;28;20896;-66
2021/04/25 14:09:44;;;;;;;4.93;1.88;;;;;;;;;;5045943;28;20021;-66
2021/04/25 14:12:09;;;;;;;6.97;2.20;;;;;;;;;;5046696;28;20537;-66
2021/04/25 14:14:35;;;;;;;3.88;2.13;;;;;;;;;;5045363;28;20036;-64
2021/04/25 14:17:00;;;;;;;7.85;2.38;;;;;;;;;;5046273;28;20033;-64
2021/04/25 14:19:26;;;;;;;7.80;2.28;;;;;;;;;;5045695;28;20044;-64
2021/04/25 14:21:51;;;;;;;4.28;2.00;;;;;;;;;;5046707;28;20025;-64
2021/04/25 14:24:19;;;;;;;4.55;2.28;;;;;;;;;;5045768;28;20423;-64
2021/04/25 14:26:44;;;;;;;5.38;1.90;;;;;;;;;;5045550;28;20037;-65
2021/04/25 14:29:10;;;;;;;6.20;2.38;;;;;;;;;;5045732;28;20389;-64
2021/04/25 14:31:35;;;;;;;5.15;2.10;;;;;;;;;;5045899;28;20077;-64
2021/04/25 14:34:01;;;;;;;7.43;2.38;;;;;;;;;;5046250;28;20056;-64
2021/04/25 14:36:26;;;;;;;4.63;1.90;;;;;;;;;;5044876;28;20140;-64